Strona główna
METAR-TAF:

METAR-TAF

Lotnisko :

Port lotniczy Hawarden

Hawarden, Walia

Szerokość geograficzna: 53-10N, Długość geograficzna: 002-59W, wysokość: 10 m

Aktualna obserwacja pogody

Raport powstał 26 minut temu, godzina 15:50 UTC
Wiatr 5 kt od zachodnio-północny zachód
Temperatura 8°C
Wilgotność 76%
Ciśnienie 1015 hPa
Widzialność 10 km lub więcej
Mało chmury na wysokości 3200 ft

METAR: EGNR 251550Z 29005KT 9999 FEW032 08/04 Q1015

czas: 16:16 (16:16 UTC)

Prognoza

Raport powstał 2 godziny i 22 minut temu, godzina 13:54 UTC
Prognoza ważna od 25 godzina 15 UTC do 25 godzina 21 UTC
Wiatr 6 kt od północny zachód
Widzialność 10 km lub więcej
Rozproszone chmury na wysokości 2500 ft

TAF: EGNR 251354Z 2515/2521 31006KT 9999 SCT025

Obserwacja i prognoza pogody dla ponad 4000 lotnisk (raport METAR i TAF).

Dostępne stacje oznaczono żółtymi i czerwonymi punktami na mapie.

Najedź kursorem aby zobaczyć nazwę stacji.

Kliknij aby zobaczyć obserwacje i prognozy pogody.

Aby zmienić mapę: kliknij na zielony przycisk z czarnym krzyżykiem, aby powiększyć; na zielony przycisk z myślnikiem, aby pomniejszyć; na zielone strzałki, aby przejść do map sąsiednich.


METAR-TAF: